sensor_id;sensor_type;location;lat;lon;timestamp;pressure;altitude;pressure_sealevel;temperature;humidity
9474;BME280;8865;47.636;7.692;2024-03-23T00:54:44;97753.16;;;11.30;100.00
9474;BME280;8865;47.636;7.692;2024-03-23T00:57:13;97749.28;;;11.34;100.00
9474;BME280;8865;47.636;7.692;2024-03-23T00:59:42;97752.56;;;11.36;100.00
9474;BME280;8865;47.636;7.692;2024-03-23T01:02:07;97731.22;;;11.31;100.00
9474;BME280;8865;47.636;7.692;2024-03-23T01:04:36;97745.97;;;11.32;100.00
9474;BME280;8865;47.636;7.692;2024-03-23T01:07:02;97737.53;;;11.38;100.00
9474;BME280;8865;47.636;7.692;2024-03-23T01:09:28;97740.59;;;11.34;100.00
9474;BME280;8865;47.636;7.692;2024-03-23T01:11:54;97740.81;;;11.40;100.00
9474;BME280;8865;47.636;7.692;2024-03-23T01:14:23;97735.91;;;11.46;100.00
9474;BME280;8865;47.636;7.692;2024-03-23T01:16:49;97737.59;;;11.47;100.00
9474;BME280;8865;47.636;7.692;2024-03-23T01:19:15;97721.34;;;11.43;100.00
9474;BME280;8865;47.636;7.692;2024-03-23T01:21:41;97725.06;;;11.40;100.00
9474;BME280;8865;47.636;7.692;2024-03-23T01:24:09;97718.09;;;11.49;100.00
9474;BME280;8865;47.636;7.692;2024-03-23T01:26:36;97719.44;;;11.53;100.00
9474;BME280;8865;47.636;7.692;2024-03-23T01:29:02;97714.34;;;11.52;100.00
9474;BME280;8865;47.636;7.692;2024-03-23T01:31:28;97705.97;;;11.48;100.00
9474;BME280;8865;47.636;7.692;2024-03-23T01:33:54;97723.06;;;11.52;100.00
9474;BME280;8865;47.636;7.692;2024-03-23T01:36:24;97715.78;;;11.46;100.00
9474;BME280;8865;47.636;7.692;2024-03-23T01:38:50;97713.31;;;11.44;100.00
9474;BME280;8865;47.636;7.692;2024-03-23T01:41:20;97714.94;;;11.46;100.00
9474;BME280;8865;47.636;7.692;2024-03-23T01:43:46;97708.28;;;11.51;100.00
9474;BME280;8865;47.636;7.692;2024-03-23T01:46:13;97714.19;;;11.53;100.00
9474;BME280;8865;47.636;7.692;2024-03-23T01:48:39;97715.19;;;11.52;100.00
9474;BME280;8865;47.636;7.692;2024-03-23T01:51:05;97705.50;;;11.53;100.00
9474;BME280;8865;47.636;7.692;2024-03-23T01:53:32;97704.69;;;11.52;100.00
9474;BME280;8865;47.636;7.692;2024-03-23T01:55:58;97694.50;;;11.49;100.00
9474;BME280;8865;47.636;7.692;2024-03-23T01:58:24;97693.50;;;11.50;100.00
9474;BME280;8865;47.636;7.692;2024-03-23T02:00:50;97690.59;;;11.53;100.00
9474;BME280;8865;47.636;7.692;2024-03-23T02:03:23;97692.09;;;11.56;100.00
9474;BME280;8865;47.636;7.692;2024-03-23T02:05:50;97685.50;;;11.52;100.00
9474;BME280;8865;47.636;7.692;2024-03-23T02:08:18;97694.72;;;11.56;100.00
9474;BME280;8865;47.636;7.692;2024-03-23T02:10:44;97696.06;;;11.60;100.00
9474;BME280;8865;47.636;7.692;2024-03-23T02:13:10;97680.84;;;11.64;100.00
9474;BME280;8865;47.636;7.692;2024-03-23T02:15:36;97684.31;;;11.64;100.00
9474;BME280;8865;47.636;7.692;2024-03-23T02:18:02;97671.19;;;11.64;100.00
9474;BME280;8865;47.636;7.692;2024-03-23T02:20:28;97668.09;;;11.69;100.00
9474;BME280;8865;47.636;7.692;2024-03-23T02:22:54;97665.63;;;11.67;100.00
9474;BME280;8865;47.636;7.692;2024-03-23T02:25:20;97668.56;;;11.64;100.00
9474;BME280;8865;47.636;7.692;2024-03-23T02:27:46;97656.41;;;11.63;100.00
9474;BME280;8865;47.636;7.692;2024-03-23T02:30:12;97669.53;;;11.63;100.00
9474;BME280;8865;47.636;7.692;2024-03-23T02:32:38;97658.06;;;11.64;100.00
9474;BME280;8865;47.636;7.692;2024-03-23T02:35:04;97662.63;;;11.62;100.00
9474;BME280;8865;47.636;7.692;2024-03-23T02:37:30;97659.34;;;11.60;100.00
9474;BME280;8865;47.636;7.692;2024-03-23T02:39:56;97651.31;;;11.61;100.00
9474;BME280;8865;47.636;7.692;2024-03-23T02:42:23;97643.97;;;11.65;100.00
9474;BME280;8865;47.636;7.692;2024-03-23T02:44:49;97655.44;;;11.64;100.00
9474;BME280;8865;47.636;7.692;2024-03-23T02:47:15;97644.97;;;11.64;100.00
9474;BME280;8865;47.636;7.692;2024-03-23T02:49:41;97641.34;;;11.65;100.00
9474;BME280;8865;47.636;7.692;2024-03-23T02:52:10;97636.94;;;11.66;100.00
9474;BME280;8865;47.636;7.692;2024-03-23T02:54:36;97627.56;;;11.63;100.00
9474;BME280;8865;47.636;7.692;2024-03-23T02:57:02;97630.19;;;11.63;100.00
9474;BME280;8865;47.636;7.692;2024-03-23T02:59:28;97628.38;;;11.64;100.00
9474;BME280;8865;47.636;7.692;2024-03-23T03:01:54;97634.63;;;11.63;100.00
9474;BME280;8865;47.636;7.692;2024-03-23T03:04:21;97629.38;;;11.63;100.00
9474;BME280;8865;47.636;7.692;2024-03-23T03:06:48;97628.84;;;11.59;100.00
9474;BME280;8865;47.636;7.692;2024-03-23T03:09:14;97621.66;;;11.61;100.00
9474;BME280;8865;47.636;7.692;2024-03-23T03:11:40;97619.03;;;11.61;100.00
9474;BME280;8865;47.636;7.692;2024-03-23T03:14:15;97617.88;;;11.64;100.00
9474;BME280;8865;47.636;7.692;2024-03-23T03:16:41;97611.00;;;11.63;100.00
9474;BME280;8865;47.636;7.692;2024-03-23T03:19:10;97603.97;;;11.63;100.00
9474;BME280;8865;47.636;7.692;2024-03-23T03:21:36;97600.00;;;11.59;100.00
9474;BME280;8865;47.636;7.692;2024-03-23T03:24:06;97603.72;;;11.56;100.00
9474;BME280;8865;47.636;7.692;2024-03-23T03:26:32;97597.84;;;11.54;100.00
9474;BME280;8865;47.636;7.692;2024-03-23T03:28:58;97605.03;;;11.52;100.00
9474;BME280;8865;47.636;7.692;2024-03-23T03:31:24;97590.28;;;11.51;100.00
9474;BME280;8865;47.636;7.692;2024-03-23T03:33:50;97586.00;;;11.50;100.00
9474;BME280;8865;47.636;7.692;2024-03-23T03:36:17;97579.44;;;11.46;100.00
9474;BME280;8865;47.636;7.692;2024-03-23T03:38:43;97575.00;;;11.47;100.00
9474;BME280;8865;47.636;7.692;2024-03-23T03:41:09;97568.09;;;11.46;100.00
9474;BME280;8865;47.636;7.692;2024-03-23T03:43:35;97568.09;;;11.46;100.00
9474;BME280;8865;47.636;7.692;2024-03-23T03:46:04;97555.84;;;11.46;100.00
9474;BME280;8865;47.636;7.692;2024-03-23T03:48:30;97545.50;;;11.44;100.00
9474;BME280;8865;47.636;7.692;2024-03-23T03:50:56;97544.66;;;11.44;100.00
9474;BME280;8865;47.636;7.692;2024-03-23T03:53:25;97543.53;;;11.47;100.00
9474;BME280;8865;47.636;7.692;2024-03-23T03:55:54;97559.28;;;11.47;100.00
9474;BME280;8865;47.636;7.692;2024-03-23T03:58:20;97550.59;;;11.46;100.00
9474;BME280;8865;47.636;7.692;2024-03-23T04:00:46;97549.28;;;11.50;100.00
9474;BME280;8865;47.636;7.692;2024-03-23T04:03:12;97539.31;;;11.54;100.00
9474;BME280;8865;47.636;7.692;2024-03-23T04:05:38;97543.53;;;11.47;100.00
9474;BME280;8865;47.636;7.692;2024-03-23T04:08:05;97550.28;;;11.49;100.00
9474;BME280;8865;47.636;7.692;2024-03-23T04:10:32;97581.28;;;11.54;100.00
9474;BME280;8865;47.636;7.692;2024-03-23T04:12:58;97603.88;;;11.55;100.00
9474;BME280;8865;47.636;7.692;2024-03-23T04:15:23;97614.59;;;11.61;100.00
9474;BME280;8865;47.636;7.692;2024-03-23T04:17:50;97644.34;;;11.70;100.00
9474;BME280;8865;47.636;7.692;2024-03-23T04:20:16;97641.44;;;11.82;100.00
9474;BME280;8865;47.636;7.692;2024-03-23T04:22:45;97647.72;;;11.89;100.00
9474;BME280;8865;47.636;7.692;2024-03-23T04:25:11;97642.84;;;11.94;100.00
9474;BME280;8865;47.636;7.692;2024-03-23T04:27:37;97651.75;;;12.01;100.00
9474;BME280;8865;47.636;7.692;2024-03-23T04:30:05;97670.13;;;12.01;100.00
9474;BME280;8865;47.636;7.692;2024-03-23T04:32:37;97671.50;;;12.13;100.00
9474;BME280;8865;47.636;7.692;2024-03-23T04:35:04;97670.34;;;12.16;100.00
9474;BME280;8865;47.636;7.692;2024-03-23T04:37:38;97675.66;;;12.24;100.00
9474;BME280;8865;47.636;7.692;2024-03-23T04:40:07;97686.66;;;12.28;100.00
9474;BME280;8865;47.636;7.692;2024-03-23T04:42:37;97691.59;;;12.31;100.00
9474;BME280;8865;47.636;7.692;2024-03-23T04:45:04;97688.66;;;12.34;100.00
9474;BME280;8865;47.636;7.692;2024-03-23T04:47:32;97682.59;;;12.33;100.00
9474;BME280;8865;47.636;7.692;2024-03-23T04:49:58;97673.88;;;12.33;100.00
9474;BME280;8865;47.636;7.692;2024-03-23T04:52:24;97683.91;;;12.38;100.00
9474;BME280;8865;47.636;7.692;2024-03-23T04:54:50;97679.50;;;12.38;100.00
9474;BME280;8865;47.636;7.692;2024-03-23T04:57:16;97677.53;;;12.40;100.00
9474;BME280;8865;47.636;7.692;2024-03-23T04:59:42;97682.47;;;12.43;100.00
9474;BME280;8865;47.636;7.692;2024-03-23T05:02:08;97685.25;;;12.42;100.00
9474;BME280;8865;47.636;7.692;2024-03-23T05:04:35;97692.66;;;12.46;100.00
9474;BME280;8865;47.636;7.692;2024-03-23T05:07:03;97722.47;;;12.37;100.00
9474;BME280;8865;47.636;7.692;2024-03-23T05:09:30;97714.91;;;12.34;100.00
9474;BME280;8865;47.636;7.692;2024-03-23T05:11:56;97711.09;;;12.28;100.00
9474;BME280;8865;47.636;7.692;2024-03-23T05:14:22;97703.38;;;12.27;100.00
9474;BME280;8865;47.636;7.692;2024-03-23T05:16:48;97696.13;;;12.21;100.00
9474;BME280;8865;47.636;7.692;2024-03-23T05:19:14;97685.78;;;12.19;100.00
9474;BME280;8865;47.636;7.692;2024-03-23T05:21:40;97674.47;;;12.19;100.00
9474;BME280;8865;47.636;7.692;2024-03-23T05:24:06;97670.72;;;12.21;100.00
9474;BME280;8865;47.636;7.692;2024-03-23T05:26:32;97677.09;;;12.19;100.00
9474;BME280;8865;47.636;7.692;2024-03-23T05:28:59;97674.28;;;12.12;100.00
9474;BME280;8865;47.636;7.692;2024-03-23T05:31:28;97689.56;;;12.17;100.00
9474;BME280;8865;47.636;7.692;2024-03-23T05:33:54;97687.41;;;12.12;100.00
9474;BME280;8865;47.636;7.692;2024-03-23T05:36:21;97692.28;;;12.07;100.00
9474;BME280;8865;47.636;7.692;2024-03-23T05:38:47;97697.38;;;12.08;100.00
9474;BME280;8865;47.636;7.692;2024-03-23T05:41:14;97694.75;;;12.08;100.00
9474;BME280;8865;47.636;7.692;2024-03-23T05:43:40;97708.41;;;12.12;100.00
9474;BME280;8865;47.636;7.692;2024-03-23T05:46:06;97694.75;;;12.08;100.00
9474;BME280;8865;47.636;7.692;2024-03-23T05:48:32;97715.75;;;12.08;100.00
9474;BME280;8865;47.636;7.692;2024-03-23T05:50:58;97706.59;;;12.12;100.00
9474;BME280;8865;47.636;7.692;2024-03-23T05:53:24;97726.94;;;12.10;100.00
9474;BME280;8865;47.636;7.692;2024-03-23T05:55:51;97719.88;;;12.11;100.00
9474;BME280;8865;47.636;7.692;2024-03-23T05:58:19;97724.66;;;12.15;100.00
9474;BME280;8865;47.636;7.692;2024-03-23T06:00:48;97724.97;;;12.12;100.00
9474;BME280;8865;47.636;7.692;2024-03-23T06:03:14;97724.16;;;12.12;100.00
9474;BME280;8865;47.636;7.692;2024-03-23T06:05:40;97733.00;;;12.11;100.00
9474;BME280;8865;47.636;7.692;2024-03-23T06:08:06;97740.06;;;12.10;100.00
9474;BME280;8865;47.636;7.692;2024-03-23T06:10:35;97738.09;;;12.12;100.00
9474;BME280;8865;47.636;7.692;2024-03-23T06:13:01;97733.66;;;12.13;100.00
9474;BME280;8865;47.636;7.692;2024-03-23T06:15:27;97736.44;;;12.11;100.00
9474;BME280;8865;47.636;7.692;2024-03-23T06:17:53;97736.09;;;12.06;100.00
9474;BME280;8865;47.636;7.692;2024-03-23T06:20:19;97737.91;;;12.06;100.00
9474;BME280;8865;47.636;7.692;2024-03-23T06:22:45;97739.03;;;12.03;100.00
9474;BME280;8865;47.636;7.692;2024-03-23T06:25:11;97722.19;;;12.14;100.00
9474;BME280;8865;47.636;7.692;2024-03-23T06:27:38;97731.88;;;12.13;100.00
9474;BME280;8865;47.636;7.692;2024-03-23T06:30:05;97744.63;;;12.08;100.00
9474;BME280;8865;47.636;7.692;2024-03-23T06:32:32;97742.31;;;12.05;100.00
9474;BME280;8865;47.636;7.692;2024-03-23T06:34:58;97754.94;;;12.02;100.00
9474;BME280;8865;47.636;7.692;2024-03-23T06:37:24;97755.91;;;12.01;100.00
9474;BME280;8865;47.636;7.692;2024-03-23T06:39:50;97760.03;;;12.03;100.00
9474;BME280;8865;47.636;7.692;2024-03-23T06:42:16;97768.72;;;12.04;100.00
9474;BME280;8865;47.636;7.692;2024-03-23T06:44:42;97774.13;;;12.02;100.00
9474;BME280;8865;47.636;7.692;2024-03-23T06:47:09;97772.94;;;11.96;100.00
9474;BME280;8865;47.636;7.692;2024-03-23T06:49:35;97784.41;;;11.95;100.00
9474;BME280;8865;47.636;7.692;2024-03-23T06:52:03;97786.66;;;11.90;100.00
9474;BME280;8865;47.636;7.692;2024-03-23T06:54:29;97805.47;;;11.86;100.00
9474;BME280;8865;47.636;7.692;2024-03-23T06:56:55;97809.41;;;11.90;100.00
9474;BME280;8865;47.636;7.692;2024-03-23T06:59:21;97830.66;;;11.78;100.00
9474;BME280;8865;47.636;7.692;2024-03-23T07:01:50;97852.03;;;11.66;100.00
9474;BME280;8865;47.636;7.692;2024-03-23T07:04:16;97861.47;;;11.58;100.00
9474;BME280;8865;47.636;7.692;2024-03-23T07:06:46;97889.97;;;11.43;100.00
9474;BME280;8865;47.636;7.692;2024-03-23T07:09:12;97890.47;;;11.29;100.00
9474;BME280;8865;47.636;7.692;2024-03-23T07:11:38;97900.16;;;11.19;100.00
9474;BME280;8865;47.636;7.692;2024-03-23T07:14:04;97919.97;;;11.03;100.00
9474;BME280;8865;47.636;7.692;2024-03-23T07:16:30;97931.41;;;11.02;100.00
9474;BME280;8865;47.636;7.692;2024-03-23T07:18:56;97925.53;;;10.81;100.00
9474;BME280;8865;47.636;7.692;2024-03-23T07:21:22;97939.34;;;10.83;100.00
9474;BME280;8865;47.636;7.692;2024-03-23T07:23:48;97949.94;;;10.91;100.00
9474;BME280;8865;47.636;7.692;2024-03-23T07:26:15;97967.72;;;10.78;100.00
9474;BME280;8865;47.636;7.692;2024-03-23T07:28:41;97980.16;;;10.76;100.00
9474;BME280;8865;47.636;7.692;2024-03-23T07:31:11;97987.34;;;10.74;100.00
9474;BME280;8865;47.636;7.692;2024-03-23T07:33:46;97997.25;;;10.70;100.00
9474;BME280;8865;47.636;7.692;2024-03-23T07:36:12;98017.38;;;10.50;100.00
9474;BME280;8865;47.636;7.692;2024-03-23T07:38:43;98004.44;;;10.39;100.00
9474;BME280;8865;47.636;7.692;2024-03-23T07:41:13;98011.41;;;10.28;100.00
9474;BME280;8865;47.636;7.692;2024-03-23T07:43:40;98024.94;;;10.33;100.00
9474;BME280;8865;47.636;7.692;2024-03-23T07:46:07;98038.03;;;10.33;100.00
9474;BME280;8865;47.636;7.692;2024-03-23T07:48:35;98046.00;;;10.32;100.00
9474;BME280;8865;47.636;7.692;2024-03-23T07:53:28;98077.66;;;10.29;100.00
9474;BME280;8865;47.636;7.692;2024-03-23T07:55:56;98080.63;;;10.35;100.00
9474;BME280;8865;47.636;7.692;2024-03-23T07:58:23;98074.09;;;10.30;100.00
9474;BME280;8865;47.636;7.692;2024-03-23T08:00:49;98086.38;;;10.29;100.00
9474;BME280;8865;47.636;7.692;2024-03-23T08:03:16;98101.63;;;10.24;100.00
9474;BME280;8865;47.636;7.692;2024-03-23T08:05:42;98094.44;;;10.16;100.00
9474;BME280;8865;47.636;7.692;2024-03-23T08:08:08;98096.72;;;10.31;100.00
9474;BME280;8865;47.636;7.692;2024-03-23T08:10:34;98104.84;;;10.28;100.00
9474;BME280;8865;47.636;7.692;2024-03-23T08:13:00;98096.19;;;10.37;100.00
9474;BME280;8865;47.636;7.692;2024-03-23T08:15:26;98106.69;;;10.37;100.00
9474;BME280;8865;47.636;7.692;2024-03-23T08:17:53;98113.19;;;10.52;100.00
9474;BME280;8865;47.636;7.692;2024-03-23T08:20:19;98114.16;;;10.61;100.00
9474;BME280;8865;47.636;7.692;2024-03-23T08:22:45;98108.94;;;10.71;100.00
9474;BME280;8865;47.636;7.692;2024-03-23T08:25:11;98103.53;;;11.12;100.00
9474;BME280;8865;47.636;7.692;2024-03-23T08:27:38;98109.47;;;11.23;100.00
9474;BME280;8865;47.636;7.692;2024-03-23T08:30:07;98120.63;;;11.35;100.00
9474;BME280;8865;47.636;7.692;2024-03-23T08:32:33;98127.94;;;11.32;100.00
9474;BME280;8865;47.636;7.692;2024-03-23T08:34:59;98123.22;;;11.45;100.00
9474;BME280;8865;47.636;7.692;2024-03-23T08:37:25;98130.09;;;11.56;100.00
9474;BME280;8865;47.636;7.692;2024-03-23T08:39:51;98134.06;;;11.70;100.00
9474;BME280;8865;47.636;7.692;2024-03-23T08:42:17;98124.09;;;11.93;100.00
9474;BME280;8865;47.636;7.692;2024-03-23T08:44:43;98126.50;;;12.14;100.00
9474;BME280;8865;47.636;7.692;2024-03-23T08:47:12;98130.81;;;12.33;100.00
9474;BME280;8865;47.636;7.692;2024-03-23T08:49:38;98121.75;;;12.45;100.00
9474;BME280;8865;47.636;7.692;2024-03-23T08:52:04;98131.53;;;12.71;100.00
9474;BME280;8865;47.636;7.692;2024-03-23T08:54:30;98133.81;;;13.02;100.00
9474;BME280;8865;47.636;7.692;2024-03-23T08:56:57;98127.03;;;13.53;100.00
9474;BME280;8865;47.636;7.692;2024-03-23T08:59:23;98124.63;;;13.95;100.00
9474;BME280;8865;47.636;7.692;2024-03-23T09:01:49;98129.69;;;14.22;100.00
9474;BME280;8865;47.636;7.692;2024-03-23T09:04:15;98125.06;;;14.67;100.00
9474;BME280;8865;47.636;7.692;2024-03-23T09:09:28;98126.13;;;15.32;94.73
9474;BME280;8865;47.636;7.692;2024-03-23T09:11:54;98118.03;;;15.50;88.39
9474;BME280;8865;47.636;7.692;2024-03-23T09:14:22;98130.22;;;15.59;78.67
9474;BME280;8865;47.636;7.692;2024-03-23T09:16:51;98124.09;;;15.67;74.62
9474;BME280;8865;47.636;7.692;2024-03-23T09:19:17;98125.91;;;15.75;75.79
9474;BME280;8865;47.636;7.692;2024-03-23T09:21:43;98130.84;;;15.69;76.07
9474;BME280;8865;47.636;7.692;2024-03-23T09:24:09;98128.69;;;15.98;74.17
9474;BME280;8865;47.636;7.692;2024-03-23T09:26:35;98125.09;;;15.58;69.90
9474;BME280;8865;47.636;7.692;2024-03-23T09:29:01;98134.69;;;15.50;74.07
9474;BME280;8865;47.636;7.692;2024-03-23T09:31:27;98130.16;;;16.00;73.78
9474;BME280;8865;47.636;7.692;2024-03-23T09:33:53;98115.03;;;16.80;70.64
9474;BME280;8865;47.636;7.692;2024-03-23T09:36:19;98118.31;;;17.52;63.64
9474;BME280;8865;47.636;7.692;2024-03-23T09:38:45;98116.16;;;18.45;57.99
9474;BME280;8865;47.636;7.692;2024-03-23T09:41:11;98119.44;;;18.83;54.34
9474;BME280;8865;47.636;7.692;2024-03-23T09:43:38;98132.09;;;18.30;54.63
9474;BME280;8865;47.636;7.692;2024-03-23T09:46:04;98127.00;;;17.98;53.54
9474;BME280;8865;47.636;7.692;2024-03-23T09:48:31;98127.19;;;18.48;52.91
9474;BME280;8865;47.636;7.692;2024-03-23T09:50:57;98131.09;;;18.31;50.64
9474;BME280;8865;47.636;7.692;2024-03-23T09:53:23;98126.72;;;18.81;49.31
9474;BME280;8865;47.636;7.692;2024-03-23T09:55:49;98120.72;;;19.31;46.02
9474;BME280;8865;47.636;7.692;2024-03-23T09:58:16;98131.44;;;18.64;45.87
9474;BME280;8865;47.636;7.692;2024-03-23T10:00:43;98136.03;;;17.66;46.74
9474;BME280;8865;47.636;7.692;2024-03-23T10:03:09;98133.72;;;16.87;48.55
9474;BME280;8865;47.636;7.692;2024-03-23T10:05:37;98129.84;;;16.35;51.08
9474;BME280;8865;47.636;7.692;2024-03-23T10:10:47;98128.53;;;15.75;53.36
9474;BME280;8865;47.636;7.692;2024-03-23T10:13:28;98128.91;;;15.30;55.17
9474;BME280;8865;47.636;7.692;2024-03-23T10:15:58;98125.44;;;14.97;56.52
9474;BME280;8865;47.636;7.692;2024-03-23T10:18:25;98115.38;;;15.17;56.37
9474;BME280;8865;47.636;7.692;2024-03-23T10:21:08;98104.25;;;15.96;55.80
9474;BME280;8865;47.636;7.692;2024-03-23T10:23:35;98112.41;;;17.49;51.60
9474;BME280;8865;47.636;7.692;2024-03-23T10:26:33;98106.44;;;20.37;44.32
9474;BME280;8865;47.636;7.692;2024-03-23T10:29:02;98088.00;;;22.36;37.96
9474;BME280;8865;47.636;7.692;2024-03-23T10:31:36;98088.38;;;23.85;34.75
9474;BME280;8865;47.636;7.692;2024-03-23T10:34:03;98098.94;;;25.20;31.67
9474;BME280;8865;47.636;7.692;2024-03-23T10:36:30;98100.47;;;24.74;30.58
9474;BME280;8865;47.636;7.692;2024-03-23T10:38:56;98098.22;;;23.16;31.58
9474;BME280;8865;47.636;7.692;2024-03-23T10:41:28;98109.31;;;21.30;32.95
9474;BME280;8865;47.636;7.692;2024-03-23T10:43:57;98109.72;;;19.69;35.08
9474;BME280;8865;47.636;7.692;2024-03-23T10:46:23;98126.53;;;18.25;37.32
9474;BME280;8865;47.636;7.692;2024-03-23T10:48:50;98123.69;;;17.05;44.75
9474;BME280;8865;47.636;7.692;2024-03-23T10:51:18;98157.28;;;15.53;51.82
9474;BME280;8865;47.636;7.692;2024-03-23T10:53:45;98165.00;;;14.38;68.43
9474;BME280;8865;47.636;7.692;2024-03-23T10:56:12;98141.00;;;13.80;83.86
9474;BME280;8865;47.636;7.692;2024-03-23T10:58:46;98139.81;;;13.74;92.08
9474;BME280;8865;47.636;7.692;2024-03-23T11:01:13;98143.56;;;13.46;93.73
9474;BME280;8865;47.636;7.692;2024-03-23T11:03:44;98167.84;;;13.21;100.00
9474;BME280;8865;47.636;7.692;2024-03-23T11:06:34;98190.84;;;12.56;100.00
9474;BME280;8865;47.636;7.692;2024-03-23T11:09:00;98233.19;;;12.05;100.00
9474;BME280;8865;47.636;7.692;2024-03-23T11:11:26;98247.28;;;11.85;100.00
9474;BME280;8865;47.636;7.692;2024-03-23T11:13:54;98247.88;;;11.59;100.00
9474;BME280;8865;47.636;7.692;2024-03-23T11:16:24;98277.25;;;11.14;100.00
9474;BME280;8865;47.636;7.692;2024-03-23T11:18:53;98266.50;;;10.66;100.00
9474;BME280;8865;47.636;7.692;2024-03-23T11:21:54;98260.75;;;10.42;100.00
9474;BME280;8865;47.636;7.692;2024-03-23T11:24:21;98273.56;;;10.24;100.00
9474;BME280;8865;47.636;7.692;2024-03-23T11:26:48;98283.78;;;10.27;100.00
9474;BME280;8865;47.636;7.692;2024-03-23T11:29:16;98277.53;;;10.18;100.00
9474;BME280;8865;47.636;7.692;2024-03-23T11:31:50;98268.47;;;10.22;100.00
9474;BME280;8865;47.636;7.692;2024-03-23T11:34:17;98261.31;;;10.24;100.00
9474;BME280;8865;47.636;7.692;2024-03-23T11:36:44;98259.09;;;10.50;100.00
9474;BME280;8865;47.636;7.692;2024-03-23T11:39:20;98243.75;;;10.67;100.00
9474;BME280;8865;47.636;7.692;2024-03-23T11:41:47;98246.44;;;10.96;100.00
9474;BME280;8865;47.636;7.692;2024-03-23T11:46:46;98235.75;;;12.25;100.00
9474;BME280;8865;47.636;7.692;2024-03-23T11:49:28;98227.88;;;15.43;100.00
9474;BME280;8865;47.636;7.692;2024-03-23T11:51:56;98208.41;;;18.49;85.48
9474;BME280;8865;47.636;7.692;2024-03-23T11:54:23;98213.59;;;20.24;65.04
9474;BME280;8865;47.636;7.692;2024-03-23T11:57:01;98215.72;;;22.12;53.27
9474;BME280;8865;47.636;7.692;2024-03-23T11:59:34;98203.84;;;23.18;49.96
9474;BME280;8865;47.636;7.692;2024-03-23T12:02:13;98197.13;;;24.54;46.25
9474;BME280;8865;47.636;7.692;2024-03-23T12:04:41;98195.09;;;25.47;40.38
9474;BME280;8865;47.636;7.692;2024-03-23T12:07:13;98198.78;;;26.12;39.64
9474;BME280;8865;47.636;7.692;2024-03-23T12:09:40;98187.22;;;26.64;36.24
9474;BME280;8865;47.636;7.692;2024-03-23T12:12:09;98182.41;;;26.25;37.55
9474;BME280;8865;47.636;7.692;2024-03-23T12:14:35;98178.19;;;26.29;35.20
9474;BME280;8865;47.636;7.692;2024-03-23T12:17:27;98161.28;;;26.17;35.84
9474;BME280;8865;47.636;7.692;2024-03-23T12:19:53;98145.00;;;26.88;34.41
9474;BME280;8865;47.636;7.692;2024-03-23T12:22:28;98139.22;;;27.59;32.95
9474;BME280;8865;47.636;7.692;2024-03-23T12:24:58;98126.63;;;27.99;32.53
9474;BME280;8865;47.636;7.692;2024-03-23T12:27:24;98130.47;;;28.25;30.40
9474;BME280;8865;47.636;7.692;2024-03-23T12:29:50;98128.44;;;28.15;30.56
9474;BME280;8865;47.636;7.692;2024-03-23T12:32:16;98113.22;;;28.04;30.47
9474;BME280;8865;47.636;7.692;2024-03-23T12:34:42;98109.97;;;28.24;31.42
9474;BME280;8865;47.636;7.692;2024-03-23T12:37:08;98105.28;;;28.14;29.91
9474;BME280;8865;47.636;7.692;2024-03-23T12:39:38;98096.81;;;27.32;30.50
9474;BME280;8865;47.636;7.692;2024-03-23T12:42:04;98091.03;;;27.23;32.39
9474;BME280;8865;47.636;7.692;2024-03-23T12:44:30;98087.25;;;28.14;31.54
9474;BME280;8865;47.636;7.692;2024-03-23T12:46:59;98079.97;;;28.37;31.05
9474;BME280;8865;47.636;7.692;2024-03-23T12:49:28;98077.56;;;26.89;29.49
9474;BME280;8865;47.636;7.692;2024-03-23T12:51:57;98071.19;;;24.12;31.84
9474;BME280;8865;47.636;7.692;2024-03-23T12:54:25;98065.31;;;22.90;34.41
9474;BME280;8865;47.636;7.692;2024-03-23T12:56:51;98073.66;;;21.45;36.54
9474;BME280;8865;47.636;7.692;2024-03-23T12:59:20;98076.59;;;19.99;38.57
9474;BME280;8865;47.636;7.692;2024-03-23T13:01:46;98071.56;;;19.41;39.75
9474;BME280;8865;47.636;7.692;2024-03-23T13:04:14;98064.94;;;20.49;38.73
9474;BME280;8865;47.636;7.692;2024-03-23T13:06:40;98065.38;;;20.59;35.33
9474;BME280;8865;47.636;7.692;2024-03-23T13:09:06;98058.91;;;21.15;35.34
9474;BME280;8865;47.636;7.692;2024-03-23T13:11:35;98059.09;;;21.20;34.02
9474;BME280;8865;47.636;7.692;2024-03-23T13:14:01;98049.78;;;21.90;33.71
9474;BME280;8865;47.636;7.692;2024-03-23T13:16:30;98052.56;;;21.36;32.46
9474;BME280;8865;47.636;7.692;2024-03-23T13:18:56;98051.13;;;21.20;33.28
9474;BME280;8865;47.636;7.692;2024-03-23T13:21:22;98041.28;;;20.94;32.41
9474;BME280;8865;47.636;7.692;2024-03-23T13:23:49;98059.63;;;20.49;33.70
9474;BME280;8865;47.636;7.692;2024-03-23T13:26:16;98055.78;;;19.68;32.01
9474;BME280;8865;47.636;7.692;2024-03-23T13:28:43;98055.63;;;18.91;33.15
9474;BME280;8865;47.636;7.692;2024-03-23T13:31:09;98047.06;;;18.31;35.30
9474;BME280;8865;47.636;7.692;2024-03-23T13:33:34;98031.75;;;19.48;33.67
9474;BME280;8865;47.636;7.692;2024-03-23T13:36:01;98030.16;;;20.57;31.77
9474;BME280;8865;47.636;7.692;2024-03-23T13:38:28;98021.63;;;20.95;30.52
9474;BME280;8865;47.636;7.692;2024-03-23T13:40:58;98025.31;;;20.67;30.83
9474;BME280;8865;47.636;7.692;2024-03-23T13:43:26;98021.75;;;20.40;31.81
9474;BME280;8865;47.636;7.692;2024-03-23T13:45:55;98009.63;;;19.76;31.48
9474;BME280;8865;47.636;7.692;2024-03-23T13:48:23;98005.41;;;19.18;31.27
9474;BME280;8865;47.636;7.692;2024-03-23T13:51:03;97988.19;;;18.64;32.44
9474;BME280;8865;47.636;7.692;2024-03-23T13:53:30;97994.84;;;18.32;33.45
9474;BME280;8865;47.636;7.692;2024-03-23T13:55:57;97993.19;;;17.79;33.31
9474;BME280;8865;47.636;7.692;2024-03-23T13:58:22;97986.06;;;18.10;33.12
9474;BME280;8865;47.636;7.692;2024-03-23T14:00:51;97996.34;;;18.41;32.88
9474;BME280;8865;47.636;7.692;2024-03-23T14:03:20;97984.03;;;18.33;31.76
9474;BME280;8865;47.636;7.692;2024-03-23T14:05:46;97991.63;;;19.01;31.11
9474;BME280;8865;47.636;7.692;2024-03-23T14:08:15;97987.88;;;19.59;30.46
9474;BME280;8865;47.636;7.692;2024-03-23T14:10:41;97984.75;;;20.65;29.99
9474;BME280;8865;47.636;7.692;2024-03-23T14:13:07;97974.94;;;20.86;28.90
9474;BME280;8865;47.636;7.692;2024-03-23T14:15:34;97971.03;;;22.26;27.36
9474;BME280;8865;47.636;7.692;2024-03-23T14:18:00;97970.13;;;23.77;27.52
9474;BME280;8865;47.636;7.692;2024-03-23T14:20:29;97973.09;;;25.25;25.52